windsock image

Welcome to Bigfield Strip.

anemometer image
     

 Help for dials.  
 
Local Met:

Wind:   
10 Min average:  
268 ° / 0.0 kts (0.0)
268° / 0.0

Temperature:  
7.2°C C
Dew Point:  
4.0°C C
QNH:  
Trend:  
1002.2 hPa mb
-0.1hPa/hr
BigField Strip. This image updates approximately every minute, it can have a two minute 
delay.  
 

Humidity:  
80 %
Sunrise:   06:07 UTC
Sunset:   18:14 UTC
Updated:  
  UTC
 
   More met info, trends, radar, history etc. available here   

LUTON Metar   EGGW 200950Z 12004KT 5000 -SN BKN020 OVC024 02/01 Q1000
 
  TAF   TAF AMD EGGW 200831Z 2008/2106 24012KT 9999 FEW025 BECMG 2008/2011 VRB03KT 6000 -RADZ BKN006 TEMPO 2009/2016 2000 RADZ BKN003 PROB40 TEMPO 2009/2016 1200 RASN BR BKN001 BECMG 2019/2022 9999 BKN011 TEMPO 2022/2024 SCT011
 
BENSON Metar   EGUB 200950Z AUTO 09004KT 8000 // BKN013/// SCT042/// 04/03 Q0999
 
  TAF   sion="1.0" encoding="UTF-8"?> 12457179 215
 
Big Field view 1 icon   Big Field view 2 icon   Big Field view 3 icon   Chart AL3a in PDF icon   Chart AL3a in Word icon

WARNING:
This information is provided by the Airstrip unofficial weather station, DO NOT depend on the data provided here for any purpose.
This page is updated for latest Metars & TAF's every 15 minutes. Page designed for a minimum browser size of 1024x768.
© Copyright 2018 BigField Strip. This page auto generated 10:30 UTC - 20/01/2018   Contact Us
Valid HTML 4.01 Transitional     Windows uptime: 6 Days 19 Hours 55 Minutes 46 Seconds    WD started: 14:43:17 13/01/2018    Free memory: 0.62GB     Valid CSS!